Time;durP1;ratioP1;P1;durP2;ratioP2;P2;SDS_P1;SDS_P2;PMS_P1;PMS_P2;Temp;Humidity;BMP_temperature;BMP_pressure;BME280_temperature;BME280_humidity;BME280_pressure;Samples;Min_cycle;Max_cycle;Signal;HPM_P1;HPM_P2
2020/12/11 00:01:31;;;;;;;11.70;5.70;;;17.50;49.70;;;;;;5082212;28;20173;-78
2020/12/11 00:04:04;;;;;;;7.20;5.35;;;17.50;49.80;;;;;;5082104;28;20149;-78
2020/12/11 00:06:30;;;;;;;11.55;5.60;;;17.50;50.00;;;;;;5065762;28;20185;-80
2020/12/11 00:08:57;;;;;;;13.70;5.38;;;17.50;49.80;;;;;;5099598;28;20157;-78
2020/12/11 00:11:31;;;;;;;10.98;5.80;;;17.50;49.80;;;;;;5099051;28;20189;-79
2020/12/11 00:13:58;;;;;;;10.32;5.70;;;17.50;49.90;;;;;;5081776;28;20153;-78
2020/12/11 00:16:28;;;;;;;11.88;5.38;;;17.50;49.90;;;;;;5082127;28;20165;-78
2020/12/11 00:18:54;;;;;;;11.95;5.75;;;17.50;49.80;;;;;;5098776;28;20148;-78
2020/12/11 00:21:22;;;;;;;11.90;5.40;;;17.50;49.80;;;;;;5065175;28;20153;-79
2020/12/11 00:23:47;;;;;;;12.85;5.78;;;17.50;49.90;;;;;;5048968;28;20233;-78
2020/12/11 00:26:16;;;;;;;11.43;5.55;;;17.50;50.00;;;;;;5081740;28;20181;-79
2020/12/11 00:28:51;;;;;;;11.32;5.72;;;17.50;49.80;;;;;;5098954;28;20138;-80
2020/12/11 00:31:23;;;;;;;13.60;5.55;;;17.50;49.80;;;;;;5098856;28;20180;-78
2020/12/11 00:33:58;;;;;;;8.77;5.95;;;17.50;50.00;;;;;;5081842;28;20153;-79
2020/12/11 00:36:24;;;;;;;12.13;5.53;;;17.40;49.90;;;;;;5098875;28;20166;-79
2020/12/11 00:39:00;;;;;;;10.25;5.68;;;17.40;50.00;;;;;;5098910;28;20172;-78
2020/12/11 00:41:26;;;;;;;12.10;5.38;;;17.40;50.00;;;;;;5065124;28;20566;-79
2020/12/11 00:43:55;;;;;;;9.15;5.30;;;17.40;49.80;;;;;;5065071;28;20171;-79
2020/12/11 00:46:26;;;;;;;10.30;5.35;;;17.50;50.00;;;;;;5081710;28;20157;-79
2020/12/11 00:48:53;;;;;;;7.75;5.53;;;17.40;49.80;;;;;;5098966;28;20208;-79
2020/12/11 00:51:26;;;;;;;9.38;5.95;;;17.50;49.90;;;;;;5098913;28;20200;-79
2020/12/11 00:53:53;;;;;;;12.85;5.55;;;17.50;50.10;;;;;;5098654;28;20150;-78
2020/12/11 00:56:20;;;;;;;12.25;5.50;;;17.50;50.10;;;;;;5098807;28;20168;-79
2020/12/11 00:58:46;;;;;;;8.48;5.25;;;17.40;50.00;;;;;;5064937;28;20180;-79
2020/12/11 01:01:14;;;;;;;8.27;4.90;;;17.40;49.90;;;;;;5098731;28;20145;-79
2020/12/11 01:03:46;;;;;;;11.15;5.70;;;17.40;50.00;;;;;;5098585;28;20182;-79
2020/12/11 01:06:13;;;;;;;8.65;5.13;;;17.40;50.00;;;;;;5098811;28;20158;-80
2020/12/11 01:08:47;;;;;;;9.13;5.68;;;17.40;50.10;;;;;;5098693;28;20149;-79
2020/12/11 01:11:13;;;;;;;9.98;5.45;;;17.40;50.10;;;;;;5098550;28;20211;-78
2020/12/11 01:13:48;;;;;;;10.23;5.70;;;17.40;50.10;;;;;;5064812;28;20157;-79
2020/12/11 01:16:19;;;;;;;13.77;5.40;;;17.40;50.20;;;;;;5080739;28;20171;-78
2020/12/11 01:18:45;;;;;;;9.93;5.25;;;17.40;50.00;;;;;;5098625;28;20209;-78
2020/12/11 01:21:20;;;;;;;8.82;5.40;;;17.40;50.00;;;;;;5098563;28;20146;-79
2020/12/11 01:23:46;;;;;;;7.82;5.82;;;17.40;50.00;;;;;;5081378;28;20167;-78
2020/12/11 01:26:12;;;;;;;10.63;5.78;;;17.40;50.00;;;;;;5098902;28;20150;-79
2020/12/11 01:28:46;;;;;;;8.70;5.43;;;17.40;50.00;;;;;;5098699;28;20162;-78
2020/12/11 01:31:33;;;;;;;10.63;5.40;;;17.40;50.70;;;;;;5098650;28;20187;-79
2020/12/11 01:33:59;;;;;;;9.10;5.25;;;17.40;50.00;;;;;;5096191;28;20176;-78
2020/12/11 01:36:27;;;;;;;10.02;5.70;;;17.40;49.80;;;;;;5098838;28;20173;-78
2020/12/11 01:38:54;;;;;;;12.57;5.43;;;17.40;49.90;;;;;;5098721;28;20149;-79
2020/12/11 01:41:20;;;;;;;9.48;5.82;;;17.40;49.90;;;;;;5098762;28;20146;-79
2020/12/11 01:43:47;;;;;;;9.07;5.15;;;17.40;50.00;;;;;;5065081;28;20153;-80
2020/12/11 01:46:17;;;;;;;9.60;5.40;;;17.40;50.00;;;;;;5098646;28;20148;-78
2020/12/11 01:48:47;;;;;;;8.60;5.35;;;17.40;50.10;;;;;;5081838;28;20138;-79
2020/12/11 01:51:13;;;;;;;14.35;6.00;;;17.40;50.10;;;;;;5081576;28;20201;-78
2020/12/11 01:53:45;;;;;;;8.68;5.40;;;17.40;49.90;;;;;;5081599;28;20151;-78
2020/12/11 01:56:15;;;;;;;11.20;5.28;;;17.40;50.20;;;;;;5081562;28;20153;-79
2020/12/11 01:58:47;;;;;;;9.40;5.28;;;17.30;50.30;;;;;;5065153;28;20177;-80
2020/12/11 02:01:16;;;;;;;11.20;5.72;;;17.30;50.10;;;;;;5064920;28;20539;-79
2020/12/11 02:03:54;;;;;;;8.70;5.28;;;17.40;50.20;;;;;;5081579;28;20154;-80
2020/12/11 02:06:25;;;;;;;10.23;5.55;;;17.40;50.30;;;;;;5081343;28;20150;-79
2020/12/11 02:08:56;;;;;;;9.10;5.63;;;17.30;50.30;;;;;;5098862;28;20166;-79
2020/12/11 02:11:23;;;;;;;8.35;5.07;;;17.30;50.30;;;;;;5081577;28;20219;-79
2020/12/11 02:13:58;;;;;;;10.90;5.22;;;17.30;50.20;;;;;;5081477;28;20154;-79
2020/12/11 02:16:29;;;;;;;8.05;5.68;;;17.30;50.30;;;;;;5098514;28;20159;-79
2020/12/11 02:19:00;;;;;;;8.48;5.40;;;17.30;50.70;;;;;;5098718;28;20177;-79
2020/12/11 02:21:29;;;;;;;9.70;5.60;;;17.30;50.20;;;;;;5081561;28;20158;-78
2020/12/11 02:23:55;;;;;;;9.15;5.32;;;17.30;50.30;;;;;;5081831;28;20216;-79
2020/12/11 02:26:24;;;;;;;9.07;5.47;;;17.30;50.30;;;;;;5098671;28;20209;-78
2020/12/11 02:28:51;;;;;;;8.40;5.50;;;17.30;50.30;;;;;;5077425;22;20226;-79
2020/12/11 02:31:17;;;;;;;8.68;5.30;;;17.30;50.30;;;;;;5032338;28;20212;-79
2020/12/11 02:33:44;;;;;;;7.97;5.63;;;17.30;50.20;;;;;;5032387;28;20154;-79
2020/12/11 02:36:13;;;;;;;9.38;5.50;;;17.30;50.20;;;;;;5065005;28;20146;-80
2020/12/11 02:38:41;;;;;;;8.18;5.63;;;17.30;50.30;;;;;;5065117;28;20150;-79
2020/12/11 02:41:16;;;;;;;9.13;5.45;;;17.30;50.30;;;;;;5048433;28;20226;-79
2020/12/11 02:43:51;;;;;;;12.55;5.53;;;17.30;50.30;;;;;;5064962;28;20183;-79
2020/12/11 02:46:18;;;;;;;9.00;5.00;;;17.30;50.30;;;;;;5048375;28;20146;-79
2020/12/11 02:48:45;;;;;;;8.65;5.25;;;17.40;50.30;;;;;;5064915;28;20153;-78
2020/12/11 02:51:12;;;;;;;8.27;5.53;;;17.30;50.30;;;;;;5064881;28;20164;-81
2020/12/11 02:53:39;;;;;;;10.60;5.72;;;17.30;50.30;;;;;;5064918;28;20162;-78
2020/12/11 02:56:06;;;;;;;9.57;5.63;;;17.30;50.30;;;;;;5048402;28;20151;-79
2020/12/11 02:58:36;;;;;;;7.93;4.95;;;17.30;50.40;;;;;;5048380;28;20166;-79
2020/12/11 03:01:11;;;;;;;8.52;5.53;;;17.30;50.20;;;;;;5064836;28;20205;-78
2020/12/11 03:03:37;;;;;;;9.20;5.13;;;17.40;50.20;;;;;;5064858;28;20172;-79
2020/12/11 03:06:08;;;;;;;7.80;5.57;;;17.30;50.10;;;;;;5031876;28;20158;-77
2020/12/11 03:08:41;;;;;;;9.48;5.68;;;17.30;50.20;;;;;;5081684;28;20146;-79
2020/12/11 03:11:13;;;;;;;8.48;5.10;;;17.30;50.30;;;;;;5064663;28;20142;-79
2020/12/11 03:13:39;;;;;;;7.30;5.13;;;17.30;50.20;;;;;;5048476;28;20192;-79
2020/12/11 03:16:08;;;;;;;7.90;5.65;;;17.30;50.20;;;;;;5064479;28;20172;-78
2020/12/11 03:18:34;;;;;;;9.10;5.38;;;17.30;50.30;;;;;;5064388;28;20154;-78
2020/12/11 03:21:00;;;;;;;7.93;5.50;;;17.30;50.40;;;;;;5031374;28;20161;-79
2020/12/11 03:23:26;;;;;;;8.50;4.90;;;17.30;50.30;;;;;;5031477;28;20142;-79
2020/12/11 03:25:51;;;;;;;9.40;5.32;;;17.30;50.30;;;;;;5031455;28;20217;-78
2020/12/11 03:28:26;;;;;;;7.60;4.85;;;17.30;50.40;;;;;;5047439;28;20249;-79
2020/12/11 03:30:53;;;;;;;7.72;5.40;;;17.30;50.30;;;;;;5064143;28;20156;-78
2020/12/11 03:33:20;;;;;;;7.47;5.13;;;17.30;50.20;;;;;;5064056;28;20182;-79
2020/12/11 03:35:46;;;;;;;9.80;5.30;;;17.30;50.20;;;;;;5081151;28;20153;-78
2020/12/11 03:38:15;;;;;;;7.90;5.40;;;17.30;50.40;;;;;;5080963;28;20166;-78
2020/12/11 03:40:43;;;;;;;8.20;5.43;;;17.30;50.30;;;;;;5080173;28;20147;-79
2020/12/11 03:43:10;;;;;;;7.68;5.25;;;17.30;50.30;;;;;;5063975;28;20154;-78
2020/12/11 03:45:37;;;;;;;9.95;5.30;;;17.30;50.40;;;;;;5080930;28;20205;-79
2020/12/11 03:48:09;;;;;;;8.13;5.20;;;17.30;50.50;;;;;;5080784;28;20169;-79
2020/12/11 03:50:40;;;;;;;8.82;5.05;;;17.30;50.40;;;;;;5063897;28;20150;-79
2020/12/11 03:53:08;;;;;;;7.82;5.20;;;17.30;50.40;;;;;;5063584;28;20190;-79
2020/12/11 03:55:42;;;;;;;7.40;5.60;;;17.30;50.60;;;;;;5045231;28;20193;-78
2020/12/11 03:58:16;;;;;;;8.63;5.60;;;17.30;50.40;;;;;;5061175;28;20151;-79
2020/12/11 04:00:46;;;;;;;7.28;5.25;;;17.30;50.50;;;;;;5043527;28;20162;-79
2020/12/11 04:03:13;;;;;;;10.27;5.40;;;17.20;50.50;;;;;;5043505;28;20218;-79
2020/12/11 04:05:47;;;;;;;7.85;5.47;;;17.30;50.40;;;;;;5043332;28;20233;-78
2020/12/11 04:08:27;;;;;;;8.77;5.32;;;17.30;50.50;;;;;;5078517;28;20154;-78
2020/12/11 04:10:54;;;;;;;8.25;5.18;;;17.20;50.50;;;;;;5042991;28;20170;-79
2020/12/11 04:13:21;;;;;;;12.75;5.85;;;17.20;50.60;;;;;;5042241;28;20193;-78
2020/12/11 04:15:48;;;;;;;7.45;5.20;;;17.30;50.50;;;;;;5059611;28;20146;-78
2020/12/11 04:18:24;;;;;;;7.18;4.88;;;17.30;50.70;;;;;;5059896;28;20214;-80
2020/12/11 04:20:56;;;;;;;8.35;5.07;;;17.30;50.50;;;;;;5059761;28;20185;-78
2020/12/11 04:23:27;;;;;;;8.65;5.63;;;17.30;50.50;;;;;;5043666;28;20146;-79
2020/12/11 04:26:00;;;;;;;8.55;5.18;;;17.30;50.40;;;;;;5043338;28;20182;-78
2020/12/11 04:28:31;;;;;;;7.78;5.43;;;17.30;50.40;;;;;;5057734;28;20225;-78
2020/12/11 04:31:06;;;;;;;8.63;5.90;;;17.30;50.50;;;;;;5075673;28;20154;-78
2020/12/11 04:33:38;;;;;;;9.00;5.60;;;17.20;50.70;;;;;;5075571;28;20241;-78
2020/12/11 04:36:15;;;;;;;9.20;5.45;;;17.30;50.70;;;;;;5075646;28;20146;-78
2020/12/11 04:38:51;;;;;;;6.38;5.28;;;17.30;50.50;;;;;;5042995;28;20177;-78
2020/12/11 04:41:20;;;;;;;7.85;5.18;;;17.30;50.50;;;;;;5041909;28;20192;-78
2020/12/11 04:43:52;;;;;;;7.03;5.13;;;17.30;50.50;;;;;;5058541;28;20161;-78
2020/12/11 04:46:28;;;;;;;7.22;5.65;;;17.20;50.50;;;;;;5041604;28;20165;-79
2020/12/11 04:48:59;;;;;;;9.07;5.07;;;17.20;50.40;;;;;;5042161;28;20148;-78
2020/12/11 04:51:30;;;;;;;6.55;5.28;;;17.20;50.60;;;;;;5042044;28;20645;-79
2020/12/11 04:53:58;;;;;;;8.55;5.25;;;17.20;50.40;;;;;;5058609;28;20146;-78
2020/12/11 04:56:27;;;;;;;8.10;5.10;;;17.30;50.20;;;;;;5042842;28;20162;-78
2020/12/11 04:59:03;;;;;;;7.38;4.85;;;17.30;50.10;;;;;;5041962;28;20173;-79
2020/12/11 05:01:32;;;;;;;7.30;4.85;;;17.40;49.60;;;;;;5042547;28;20172;-78
2020/12/11 05:04:01;;;;;;;8.07;4.97;;;17.50;49.40;;;;;;5042508;28;20529;-78
2020/12/11 05:06:32;;;;;;;7.72;5.00;;;17.50;49.40;;;;;;5059164;28;20185;-78
2020/12/11 05:09:16;;;;;;;9.13;5.40;;;17.50;49.60;;;;;;5060962;28;20170;-78
2020/12/11 05:11:47;;;;;;;8.35;5.07;;;17.50;49.50;;;;;;5045011;28;20209;-78
2020/12/11 05:14:31;;;;;;;8.63;5.28;;;17.40;49.50;;;;;;5061456;28;20457;-79
2020/12/11 05:17:03;;;;;;;6.47;4.82;;;17.50;49.40;;;;;;5061893;28;20170;-79
2020/12/11 05:19:48;;;;;;;5.60;4.93;;;17.40;49.30;;;;;;5045595;28;20647;-78
2020/12/11 05:22:24;;;;;;;11.80;5.47;;;17.60;49.00;;;;;;5045503;28;20186;-78
2020/12/11 05:24:52;;;;;;;6.55;5.00;;;17.60;49.20;;;;;;5062010;28;20146;-79
2020/12/11 05:27:31;;;;;;;7.30;5.30;;;17.50;49.50;;;;;;5078719;28;20289;-80
2020/12/11 05:29:59;;;;;;;7.13;4.90;;;17.50;49.40;;;;;;5062202;28;20217;-79
2020/12/11 05:32:39;;;;;;;7.13;5.10;;;17.40;49.40;;;;;;5045446;28;20201;-79
2020/12/11 05:35:06;;;;;;;5.75;4.80;;;17.50;49.40;;;;;;5045462;28;20154;-79
2020/12/11 05:38:07;;;;;;;7.22;5.03;;;17.40;49.20;;;;;;5029313;28;20162;-79
2020/12/11 05:40:43;;;;;;;6.88;5.20;;;17.50;49.40;;;;;;5061857;28;20149;-79
2020/12/11 05:43:20;;;;;;;7.55;5.10;;;17.40;49.20;;;;;;5045503;28;20173;-79
2020/12/11 05:45:50;;;;;;;6.78;4.75;;;17.40;49.30;;;;;;5045160;28;20157;-78
2020/12/11 05:48:16;;;;;;;5.82;4.65;;;17.40;49.20;;;;;;5061699;28;20184;-80
2020/12/11 05:50:43;;;;;;;7.05;5.25;;;17.40;49.00;;;;;;5078959;28;20162;-79
2020/12/11 05:53:10;;;;;;;7.95;5.22;;;17.50;49.00;;;;;;5045023;28;20194;-80
2020/12/11 05:55:37;;;;;;;7.97;5.20;;;17.50;48.90;;;;;;5045246;28;20185;-79
2020/12/11 05:58:09;;;;;;;7.55;4.97;;;17.50;49.00;;;;;;5045271;28;20162;-78
2020/12/11 06:00:36;;;;;;;6.38;5.10;;;17.50;48.80;;;;;;5061928;28;20185;-79
2020/12/11 06:03:03;;;;;;;6.65;5.18;;;17.40;49.00;;;;;;5046407;28;20253;-79
2020/12/11 06:05:30;;;;;;;6.63;5.38;;;17.50;48.80;;;;;;5065409;28;20182;-78
2020/12/11 06:07:57;;;;;;;6.78;5.03;;;17.50;48.90;;;;;;5065420;28;20151;-79
2020/12/11 06:10:27;;;;;;;6.90;5.25;;;17.40;49.10;;;;;;5048842;28;20217;-79
2020/12/11 06:12:53;;;;;;;6.55;4.78;;;17.50;48.90;;;;;;5065506;28;20249;-79
2020/12/11 06:15:22;;;;;;;7.15;5.10;;;17.50;48.80;;;;;;5065271;28;20162;-79
2020/12/11 06:17:58;;;;;;;7.55;5.43;;;17.40;48.80;;;;;;5064435;28;20174;-79
2020/12/11 06:20:25;;;;;;;8.43;4.80;;;17.50;48.80;;;;;;5049487;28;20177;-78
2020/12/11 06:22:52;;;;;;;6.55;5.13;;;17.50;48.70;;;;;;5048269;28;20190;-79
2020/12/11 06:25:29;;;;;;;6.13;4.93;;;17.40;48.80;;;;;;5048486;28;20154;-79
2020/12/11 06:27:56;;;;;;;6.97;5.57;;;17.40;48.70;;;;;;5045778;28;20240;-79
2020/12/11 06:30:31;;;;;;;6.15;4.70;;;17.40;48.80;;;;;;5030573;28;20253;-80
2020/12/11 06:33:06;;;;;;;6.13;4.95;;;17.50;48.60;;;;;;5048475;28;20205;-78
2020/12/11 06:35:37;;;;;;;7.75;4.63;;;17.40;48.80;;;;;;5066919;23;20220;-78
2020/12/11 06:38:06;;;;;;;8.52;4.88;;;17.40;48.90;;;;;;5080240;28;20248;-78
2020/12/11 06:40:58;;;;;;;6.28;5.07;;;17.40;48.40;;;;;;5063604;28;20192;-78
2020/12/11 06:43:38;;;;;;;7.43;4.80;;;17.50;48.60;;;;;;5059897;28;20642;-78
2020/12/11 06:46:17;;;;;;;6.65;4.80;;;17.50;48.30;;;;;;5081649;28;20196;-78
2020/12/11 06:49:06;;;;;;;6.38;5.15;;;17.60;48.00;;;;;;5065989;28;20157;-78
2020/12/11 06:51:34;;;;;;;7.32;5.15;;;17.60;48.10;;;;;;5084435;28;20224;-78
2020/12/11 06:54:01;;;;;;;6.40;4.88;;;17.60;48.00;;;;;;5067839;28;20225;-78
2020/12/11 06:56:43;;;;;;;6.07;4.72;;;17.60;48.10;;;;;;5068222;28;20173;-78
2020/12/11 06:59:22;;;;;;;6.30;5.07;;;17.60;48.30;;;;;;5067973;28;20184;-78
2020/12/11 07:02:08;;;;;;;6.40;5.10;;;17.50;48.00;;;;;;5084598;28;20144;-78
2020/12/11 07:04:49;;;;;;;6.68;4.93;;;17.50;48.20;;;;;;5084605;28;20229;-78
2020/12/11 07:07:18;;;;;;;6.35;4.93;;;17.50;48.00;;;;;;5084395;28;20185;-78
2020/12/11 07:09:49;;;;;;;7.50;5.30;;;17.50;48.00;;;;;;5067862;28;20181;-77
2020/12/11 07:12:16;;;;;;;8.07;4.72;;;17.50;48.30;;;;;;5084150;28;20180;-79
2020/12/11 07:14:47;;;;;;;5.78;4.78;;;17.40;48.20;;;;;;5066119;28;20165;-78
2020/12/11 07:17:35;;;;;;;5.68;4.95;;;17.50;47.90;;;;;;5067066;28;20528;-78
2020/12/11 07:20:04;;;;;;;6.07;4.80;;;17.50;48.00;;;;;;5083592;28;20180;-77
2020/12/11 07:22:30;;;;;;;5.40;4.40;;;17.50;48.00;;;;;;5066160;28;20173;-78
2020/12/11 07:25:00;;;;;;;6.85;5.18;;;17.50;48.00;;;;;;5066702;28;20195;-78
2020/12/11 07:27:28;;;;;;;6.97;5.20;;;17.40;48.40;;;;;;5066383;28;20164;-78
2020/12/11 07:29:55;;;;;;;7.10;5.00;;;17.50;48.40;;;;;;5083140;28;20137;-78
2020/12/11 07:32:28;;;;;;;6.65;4.97;;;17.40;48.60;;;;;;5082933;28;20233;-78
2020/12/11 07:34:54;;;;;;;6.03;4.65;;;17.50;48.70;;;;;;5099668;28;20223;-78
2020/12/11 07:37:21;;;;;;;6.50;4.70;;;17.40;48.70;;;;;;5082668;28;20169;-78
2020/12/11 07:39:50;;;;;;;7.47;5.07;;;17.40;48.70;;;;;;5099184;28;20150;-79
2020/12/11 07:42:21;;;;;;;6.18;5.03;;;17.40;48.60;;;;;;5082788;28;20165;-79
2020/12/11 07:44:51;;;;;;;5.72;4.47;;;17.40;49.20;;;;;;5065627;28;20172;-78
2020/12/11 07:47:19;;;;;;;6.45;4.80;;;17.50;48.40;;;;;;5066371;28;20169;-77
2020/12/11 07:49:46;;;;;;;6.35;4.90;;;17.50;48.40;;;;;;5065819;28;20158;-78
2020/12/11 07:52:21;;;;;;;6.60;4.85;;;17.50;48.30;;;;;;5081644;28;20193;-79
2020/12/11 07:54:48;;;;;;;5.45;4.57;;;17.40;48.40;;;;;;5065746;28;20179;-77
2020/12/11 07:57:20;;;;;;;5.85;4.80;;;17.40;48.40;;;;;;5079469;28;20161;-78
2020/12/11 08:00:07;;;;;;;6.35;5.05;;;17.40;48.30;;;;;;5079535;28;20150;-79
2020/12/11 08:02:34;;;;;;;6.10;4.78;;;17.50;48.20;;;;;;5054850;28;20195;-79
2020/12/11 08:05:22;;;;;;;5.95;4.65;;;17.50;48.70;;;;;;5093725;28;20632;-79
2020/12/11 08:07:50;;;;;;;5.93;4.78;;;17.50;48.20;;;;;;5052825;28;20169;-79
2020/12/11 08:10:32;;;;;;;5.32;4.60;;;17.50;48.00;;;;;;5071470;28;20219;-79
2020/12/11 08:13:08;;;;;;;6.50;4.93;;;17.50;48.00;;;;;;5053114;28;20192;-79
2020/12/11 08:15:38;;;;;;;6.18;4.60;;;17.50;48.00;;;;;;5068254;28;20220;-79
2020/12/11 08:18:25;;;;;;;5.47;4.82;;;17.50;47.80;;;;;;5066747;28;20165;-80
2020/12/11 08:21:22;;;;;;;6.00;4.63;;;17.50;48.20;;;;;;5066141;28;20167;-79
2020/12/11 08:23:50;;;;;;;6.85;5.18;;;17.50;48.00;;;;;;5065019;28;20169;-79
2020/12/11 08:26:19;;;;;;;5.97;4.70;;;17.50;47.90;;;;;;5057864;28;20150;-78
2020/12/11 08:29:13;;;;;;;6.53;5.20;;;17.50;47.80;;;;;;5078190;28;20162;-78
2020/12/11 08:32:03;;;;;;;7.10;4.80;;;17.40;47.90;;;;;;5080823;28;20185;-78
2020/12/11 08:34:29;;;;;;;7.32;5.13;;;17.50;47.90;;;;;;5064055;28;20231;-77
2020/12/11 08:37:21;;;;;;;8.13;5.45;;;17.40;48.70;;;;;;5063681;28;20161;-77
2020/12/11 08:40:08;;;;;;;5.90;4.85;;;17.50;47.80;;;;;;5076234;28;20543;-77
2020/12/11 08:43:03;;;;;;;6.18;4.68;;;17.50;48.10;;;;;;5092952;28;20257;-77
2020/12/11 08:45:37;;;;;;;6.65;5.38;;;17.50;47.80;;;;;;5077040;28;20214;-77
2020/12/11 08:50:47;;;;;;;6.78;5.10;;;17.50;47.80;;;;;;5076479;28;20177;-77
2020/12/11 08:53:16;;;;;;;6.18;4.95;;;17.50;47.80;;;;;;5075346;28;20188;-77
2020/12/11 08:55:43;;;;;;;6.30;4.65;;;17.50;47.90;;;;;;5092449;28;20162;-77
2020/12/11 08:58:10;;;;;;;7.65;5.05;;;17.50;48.00;;;;;;5091956;28;20153;-77
2020/12/11 09:00:36;;;;;;;8.88;4.68;;;17.50;47.70;;;;;;5058403;28;20158;-77
2020/12/11 09:03:03;;;;;;;8.02;4.90;;;17.50;47.60;;;;;;5059633;28;20153;-78
2020/12/11 09:05:30;;;;;;;10.20;4.75;;;17.50;47.60;;;;;;5060931;28;20166;-77
2020/12/11 09:07:58;;;;;;;9.57;4.97;;;17.50;47.40;;;;;;5062745;28;20163;-78
2020/12/11 09:10:26;;;;;;;8.50;4.60;;;17.50;47.50;;;;;;5067544;28;20154;-76
2020/12/11 09:12:53;;;;;;;8.20;4.97;;;17.50;47.50;;;;;;5072778;28;20201;-76
2020/12/11 09:15:21;;;;;;;10.70;4.63;;;17.50;47.40;;;;;;5070990;28;20157;-76
2020/12/11 09:17:48;;;;;;;9.02;4.90;;;17.60;47.70;;;;;;5091048;28;20153;-77
2020/12/11 09:20:22;;;;;;;7.90;4.78;;;17.50;47.60;;;;;;5085726;28;20176;-76
2020/12/11 09:22:49;;;;;;;6.80;4.80;;;17.50;47.70;;;;;;5057734;28;20153;-78
2020/12/11 09:25:18;;;;;;;6.15;4.72;;;17.50;47.70;;;;;;5076034;28;20158;-79
2020/12/11 09:27:46;;;;;;;8.05;4.78;;;17.50;47.70;;;;;;5058793;28;20158;-78
2020/12/11 09:30:26;;;;;;;10.85;5.32;;;17.50;47.70;;;;;;5077244;28;20184;-77
2020/12/11 09:35:20;;;;;;;6.82;4.53;;;17.60;47.40;;;;;;5077193;28;20235;-77
2020/12/11 09:37:50;;;;;;;8.23;4.78;;;17.70;47.30;;;;;;5077988;28;20153;-78
2020/12/11 09:40:22;;;;;;;7.25;5.22;;;17.60;47.40;;;;;;5061271;28;20229;-78
2020/12/11 09:43:03;;;;;;;7.80;4.82;;;17.60;47.40;;;;;;5062489;28;20173;-79
2020/12/11 09:45:39;;;;;;;5.85;4.65;;;17.60;47.60;;;;;;5082304;28;20154;-78
2020/12/11 09:50:52;;;;;;;6.43;4.95;;;17.50;47.50;;;;;;5077138;28;20157;-78
2020/12/11 09:56:02;;;;;;;5.93;4.70;;;17.50;47.50;;;;;;5092675;28;20150;-78
2020/12/11 09:58:29;;;;;;;9.00;5.07;;;17.50;47.60;;;;;;5060052;28;20517;-79
2020/12/11 10:00:56;;;;;;;6.55;4.57;;;17.50;47.40;;;;;;5074816;28;20158;-78
2020/12/11 10:03:32;;;;;;;5.75;4.88;;;17.60;47.20;;;;;;5074728;28;20157;-78
2020/12/11 10:05:59;;;;;;;8.20;4.55;;;17.60;46.90;;;;;;5059700;28;20168;-78
2020/12/11 10:08:34;;;;;;;6.72;4.75;;;17.60;46.90;;;;;;5075006;28;20182;-78
2020/12/11 10:11:00;;;;;;;9.30;4.82;;;17.60;47.00;;;;;;5074465;28;20157;-79
2020/12/11 10:13:42;;;;;;;9.15;4.97;;;17.50;47.00;;;;;;5074553;28;20239;-78
2020/12/11 10:16:08;;;;;;;6.63;4.50;;;17.60;47.20;;;;;;5073925;28;20162;-78
2020/12/11 10:18:35;;;;;;;8.23;4.90;;;17.60;47.30;;;;;;5074843;28;20158;-78
2020/12/11 10:21:02;;;;;;;6.55;5.00;;;17.50;47.30;;;;;;5074490;28;20174;-79
2020/12/11 10:23:31;;;;;;;8.63;4.70;;;17.50;47.10;;;;;;5075465;28;20165;-78
2020/12/11 10:25:58;;;;;;;6.25;4.65;;;17.60;47.00;;;;;;5091618;28;20157;-78
2020/12/11 10:28:26;;;;;;;7.15;4.65;;;17.60;46.80;;;;;;5074523;28;20153;-79
2020/12/11 10:30:52;;;;;;;5.75;4.90;;;17.60;47.10;;;;;;5075013;28;20154;-78
2020/12/11 10:33:19;;;;;;;5.85;4.93;;;17.60;46.90;;;;;;5075577;28;20196;-79
2020/12/11 10:35:50;;;;;;;8.93;5.05;;;17.60;47.10;;;;;;5058907;28;20212;-78
2020/12/11 10:38:19;;;;;;;5.22;4.50;;;17.60;46.90;;;;;;5092550;28;20161;-78
2020/12/11 10:40:46;;;;;;;7.35;4.93;;;17.60;47.00;;;;;;5074109;28;20149;-79
2020/12/11 10:43:20;;;;;;;6.00;4.80;;;17.60;46.90;;;;;;5057941;28;20161;-79
2020/12/11 10:45:46;;;;;;;6.38;4.63;;;17.60;46.90;;;;;;5075070;28;20258;-79
2020/12/11 10:48:13;;;;;;;6.03;4.90;;;17.60;46.80;;;;;;5075042;28;20145;-79
2020/12/11 10:50:48;;;;;;;5.70;4.45;;;17.60;46.90;;;;;;5096641;28;20217;-79
2020/12/11 10:53:16;;;;;;;5.78;4.55;;;17.70;46.70;;;;;;5079832;28;20197;-78
2020/12/11 10:55:43;;;;;;;5.13;4.20;;;17.70;46.60;;;;;;5081041;28;20225;-79
2020/12/11 10:58:10;;;;;;;5.38;4.63;;;17.70;46.70;;;;;;5080655;28;20164;-78
2020/12/11 11:00:44;;;;;;;7.13;4.65;;;17.60;46.80;;;;;;5080542;28;20154;-80
2020/12/11 11:03:12;;;;;;;6.18;4.60;;;17.60;46.80;;;;;;5078929;28;20201;-79
2020/12/11 11:05:40;;;;;;;6.63;4.80;;;17.60;46.90;;;;;;5062423;28;20180;-78
2020/12/11 11:08:18;;;;;;;5.40;4.53;;;17.60;46.90;;;;;;5079269;28;20244;-79
2020/12/11 11:10:48;;;;;;;7.75;4.90;;;17.60;47.00;;;;;;5060787;28;20165;-79
2020/12/11 11:13:27;;;;;;;6.72;4.90;;;17.60;46.90;;;;;;5079112;28;20200;-79
2020/12/11 11:15:56;;;;;;;5.93;4.72;;;17.50;46.90;;;;;;5079155;28;20214;-79
2020/12/11 11:24:09;;;;;;;5.68;5.05;;;17.60;46.80;;;;;;5096197;28;20239;-79
2020/12/11 11:29:25;;;;;;;6.18;4.40;;;17.60;47.00;;;;;;5038806;28;20178;-79
2020/12/11 11:31:59;;;;;;;6.88;4.78;;;17.60;47.10;;;;;;5019177;28;20198;-78
2020/12/11 11:34:25;;;;;;;9.88;4.80;;;17.60;46.80;;;;;;5017361;28;20209;-79
2020/12/11 11:36:57;;;;;;;5.55;4.60;;;17.60;46.90;;;;;;5033385;28;20262;-78
2020/12/11 11:39:28;;;;;;;8.20;5.00;;;17.70;46.70;;;;;;5017706;28;20179;-78
2020/12/11 11:41:57;;;;;;;5.35;4.82;;;17.70;46.70;;;;;;5034838;28;20167;-79
2020/12/11 11:46:53;;;;;;;7.53;4.93;;;17.60;46.70;;;;;;5040683;28;20185;-79
2020/12/11 11:49:35;;;;;;;6.60;4.82;;;17.60;46.80;;;;;;5041049;28;20158;-79
2020/12/11 11:54:57;;;;;;;7.15;5.10;;;17.60;46.70;;;;;;4947131;29;20193;-79
2020/12/11 11:57:32;;;;;;;6.70;4.90;;;17.60;46.70;;;;;;4927080;29;20158;-79
2020/12/11 11:59:59;;;;;;;5.95;4.78;;;17.60;46.90;;;;;;4959468;28;20206;-78
2020/12/11 12:02:26;;;;;;;6.57;5.32;;;17.60;46.90;;;;;;4958851;29;20227;-79
2020/12/11 12:04:53;;;;;;;5.50;4.57;;;17.50;46.90;;;;;;4959140;29;20274;-79
2020/12/11 12:07:20;;;;;;;6.50;4.93;;;17.50;47.00;;;;;;4943495;29;20177;-78
2020/12/11 12:09:46;;;;;;;6.57;4.90;;;17.50;47.10;;;;;;4944190;28;20170;-79
2020/12/11 12:12:13;;;;;;;6.03;5.18;;;17.50;46.80;;;;;;4943747;29;20733;-79
2020/12/11 12:14:41;;;;;;;6.00;4.65;;;17.50;46.90;;;;;;4942685;29;20201;-79
2020/12/11 12:17:15;;;;;;;5.88;4.72;;;17.50;46.80;;;;;;4926696;29;20190;-78
2020/12/11 12:19:54;;;;;;;6.35;5.13;;;17.60;46.60;;;;;;4944677;29;20162;-79
2020/12/11 12:30:39;;;;;;;5.70;4.63;;;17.70;46.30;;;;;;4928888;28;20173;-78
2020/12/11 12:33:58;;;;;;;5.70;4.70;;;17.60;46.40;;;;;;4983602;28;20235;-79
2020/12/11 12:44:19;;;;;;;5.90;5.03;;;17.70;46.40;;;;;;4966814;28;20176;-79
2020/12/11 12:46:47;;;;;;;6.20;5.20;;;17.60;46.50;;;;;;4964276;29;20245;-79
2020/12/11 12:49:13;;;;;;;5.60;5.00;;;17.60;46.50;;;;;;4964285;28;20184;-78
2020/12/11 12:51:40;;;;;;;5.43;4.47;;;17.60;46.50;;;;;;4960770;29;20212;-78
2020/12/11 12:54:06;;;;;;;6.20;4.90;;;17.60;46.70;;;;;;4959911;29;20168;-79
2020/12/11 12:56:39;;;;;;;5.43;4.65;;;17.60;46.60;;;;;;4958960;29;20185;-78
2020/12/11 12:59:15;;;;;;;5.38;4.60;;;17.60;46.60;;;;;;4960042;29;20188;-79
2020/12/11 13:04:38;;;;;;;6.82;5.18;;;17.60;46.50;;;;;;4988457;28;20278;-78
2020/12/11 13:07:06;;;;;;;5.25;4.40;;;17.60;46.60;;;;;;5015121;28;20232;-78
2020/12/11 13:09:38;;;;;;;6.40;5.15;;;17.50;46.60;;;;;;5014795;28;20187;-79
2020/12/11 13:12:04;;;;;;;6.28;4.90;;;17.50;46.60;;;;;;4997451;28;20187;-79
2020/12/11 13:14:31;;;;;;;5.25;4.68;;;17.50;46.50;;;;;;5010284;28;20164;-77
2020/12/11 13:16:57;;;;;;;5.85;4.80;;;17.60;46.30;;;;;;5069320;28;20166;-79
2020/12/11 13:19:33;;;;;;;5.28;4.50;;;17.60;46.40;;;;;;5051929;28;20212;-78
2020/12/11 13:27:25;;;;;;;12.77;5.15;;;17.70;46.30;;;;;;5036284;28;20158;-77
2020/12/11 13:29:53;;;;;;;19.40;5.93;;;17.70;46.10;;;;;;5029887;28;20300;-77
2020/12/11 13:32:20;;;;;;;16.35;5.90;;;17.70;46.30;;;;;;5024560;28;20270;-77
2020/12/11 13:34:48;;;;;;;17.52;5.40;;;17.60;46.30;;;;;;5026803;28;20222;-78
2020/12/11 13:37:15;;;;;;;12.07;4.88;;;17.70;46.30;;;;;;5055983;28;20170;-79
2020/12/11 13:39:41;;;;;;;15.48;5.60;;;17.60;46.30;;;;;;5055023;28;20132;-79
2020/12/11 13:42:08;;;;;;;22.90;5.13;;;17.70;46.20;;;;;;5055840;28;20214;-81
2020/12/11 13:44:37;;;;;;;12.93;5.10;;;17.60;46.40;;;;;;5064759;28;20210;-79
2020/12/11 13:47:07;;;;;;;15.50;5.75;;;17.60;46.20;;;;;;5072729;28;20154;-79
2020/12/11 13:49:33;;;;;;;14.38;5.00;;;17.60;46.30;;;;;;5075425;28;20160;-78
2020/12/11 13:51:59;;;;;;;14.30;5.35;;;17.60;46.30;;;;;;5073983;28;20660;-79
2020/12/11 13:54:27;;;;;;;12.13;4.60;;;17.60;46.20;;;;;;5062817;28;20185;-79